Time;durP1;ratioP1;P1;durP2;ratioP2;P2;SDS_P1;SDS_P2;PMS_P1;PMS_P2;Temp;Humidity;BMP_temperature;BMP_pressure;BME280_temperature;BME280_humidity;BME280_pressure;Samples;Min_cycle;Max_cycle;Signal;HPM_P1;HPM_P2
2021/08/14 00:02:32;;;;;;;13.80;8.38;;;;;;;18.59;100.00;95724.84;5025084;28;20029;-63
2021/08/14 00:05:04;;;;;;;17.80;8.85;;;;;;;18.61;100.00;95723.44;5032001;28;20028;-63
2021/08/14 00:07:35;;;;;;;13.93;8.77;;;;;;;18.62;100.00;95716.09;5025695;28;20040;-63
2021/08/14 00:10:01;;;;;;;17.38;8.73;;;;;;;18.61;100.00;95711.78;5031706;28;20108;-63
2021/08/14 00:12:29;;;;;;;14.25;9.10;;;;;;;18.62;100.00;95716.09;5038082;28;20039;-63
2021/08/14 00:14:54;;;;;;;14.40;8.98;;;;;;;18.61;100.00;95712.59;5051839;28;20079;-63
2021/08/14 00:17:26;;;;;;;18.58;8.88;;;;;;;18.61;100.00;95709.06;5051613;28;20053;-63
2021/08/14 00:19:57;;;;;;;14.32;8.70;;;;;;;18.61;100.00;95709.06;5053488;28;20025;-63
2021/08/14 00:22:22;;;;;;;13.63;8.18;;;;;;;18.61;100.00;95699.00;5055161;28;20035;-62
2021/08/14 00:24:51;;;;;;;14.45;8.68;;;;;;;18.59;100.00;95697.72;5037436;28;20029;-62
2021/08/14 00:27:16;;;;;;;11.63;8.15;;;;;;;18.57;100.00;95694.50;5055207;28;20494;-63
2021/08/14 00:29:43;;;;;;;15.23;8.85;;;;;;;18.55;100.00;95694.78;5021129;28;20025;-63
2021/08/14 00:32:08;;;;;;;12.98;8.68;;;;;;;18.53;100.00;95681.50;5030771;28;20064;-63
2021/08/14 00:34:40;;;;;;;15.18;8.85;;;;;;;18.51;100.00;95683.72;5050042;28;20491;-63
2021/08/14 00:37:05;;;;;;;18.48;9.07;;;;;;;18.50;100.00;95682.13;5024278;28;20061;-63
2021/08/14 00:39:37;;;;;;;15.23;8.73;;;;;;;18.49;100.00;95680.53;5014373;28;20022;-63
2021/08/14 00:42:05;;;;;;;12.93;9.15;;;;;;;18.48;100.00;95678.13;5014202;28;20029;-63
2021/08/14 00:44:34;;;;;;;16.15;8.75;;;;;;;18.46;100.00;95675.72;5014447;28;20044;-63
2021/08/14 00:47:04;;;;;;;15.23;8.55;;;;;;;18.45;100.00;95667.84;5014511;28;20076;-63
2021/08/14 00:49:29;;;;;;;13.73;8.52;;;;;;;18.44;100.00;95664.31;5002438;28;20025;-63
2021/08/14 00:51:57;;;;;;;15.25;8.50;;;;;;;18.43;100.00;95675.47;5014012;28;20167;-63
2021/08/14 00:54:22;;;;;;;15.55;9.45;;;;;;;18.41;100.00;95673.06;4996657;28;20105;-63
2021/08/14 00:56:48;;;;;;;10.68;8.15;;;;;;;18.38;100.00;95670.97;5014335;28;20109;-63
2021/08/14 00:59:19;;;;;;;11.20;8.48;;;;;;;18.35;100.00;95663.44;5014289;28;20018;-63
2021/08/14 01:01:44;;;;;;;12.45;8.82;;;;;;;18.31;100.00;95659.69;5013993;28;20638;-63
2021/08/14 01:04:15;;;;;;;12.82;8.50;;;;;;;18.29;100.00;95663.81;5013903;28;20164;-62
2021/08/14 01:06:43;;;;;;;15.93;9.00;;;;;;;18.28;100.00;95657.59;5000033;28;20493;-63
2021/08/14 01:09:09;;;;;;;14.45;8.82;;;;;;;18.26;100.00;95659.81;4996259;28;20040;-63
2021/08/14 01:11:37;;;;;;;16.33;9.57;;;;;;;18.22;100.00;95656.06;5013715;28;20124;-63
2021/08/14 01:14:02;;;;;;;19.60;9.10;;;;;;;18.18;100.00;95655.06;5013949;28;20033;-63
2021/08/14 01:16:31;;;;;;;12.98;8.40;;;;;;;18.14;100.00;95651.34;4996356;28;20481;-63
2021/08/14 01:19:07;;;;;;;12.32;8.65;;;;;;;18.09;100.00;95654.13;4996721;28;20040;-63
2021/08/14 01:21:33;;;;;;;13.48;8.32;;;;;;;18.03;100.00;95652.63;5013427;28;20104;-63
2021/08/14 01:24:05;;;;;;;15.18;8.85;;;;;;;17.98;100.00;95647.28;5013684;28;20160;-63
2021/08/14 01:26:45;;;;;;;10.98;7.97;;;;;;;17.95;100.00;95646.78;5013655;28;20439;-63
2021/08/14 01:29:11;;;;;;;15.43;8.60;;;;;;;17.90;100.00;95644.16;4996037;28;20058;-62
2021/08/14 01:31:37;;;;;;;13.38;8.20;;;;;;;17.89;100.00;95642.53;5012519;28;20072;-63
2021/08/14 01:34:03;;;;;;;11.52;8.23;;;;;;;17.86;100.00;95637.72;5013436;28;20018;-63
2021/08/14 01:36:29;;;;;;;13.57;8.88;;;;;;;17.85;100.00;95643.44;5020029;28;20048;-63
2021/08/14 01:39:05;;;;;;;15.02;8.57;;;;;;;17.84;100.00;95644.56;5033125;28;20029;-63
2021/08/14 01:41:33;;;;;;;14.20;8.52;;;;;;;17.80;100.00;95630.81;5025690;28;20021;-63
2021/08/14 01:44:04;;;;;;;16.08;7.90;;;;;;;17.78;100.00;95634.88;5032975;28;20179;-63
2021/08/14 01:46:35;;;;;;;10.25;7.45;;;;;;;17.74;100.00;95634.69;5032913;28;20392;-63
2021/08/14 01:49:01;;;;;;;14.50;8.35;;;;;;;17.71;100.00;95632.56;5032933;28;20056;-63
2021/08/14 01:51:31;;;;;;;18.25;9.18;;;;;;;17.68;100.00;95633.91;5014648;28;20061;-63
2021/08/14 01:53:59;;;;;;;16.25;8.32;;;;;;;17.64;100.00;95629.41;5032870;28;20091;-63
2021/08/14 01:56:26;;;;;;;13.05;9.05;;;;;;;17.60;100.00;95623.78;5032514;28;20026;-63
2021/08/14 01:58:51;;;;;;;16.33;8.63;;;;;;;17.58;100.00;95622.44;5032785;28;20025;-63
2021/08/14 02:01:17;;;;;;;11.45;8.30;;;;;;;17.53;100.00;95625.25;5032257;28;20491;-63
2021/08/14 02:03:47;;;;;;;12.68;9.10;;;;;;;17.51;100.00;95611.19;5015282;28;20036;-63
2021/08/14 02:06:21;;;;;;;12.55;9.40;;;;;;;17.49;100.00;95606.09;5032600;28;20025;-63
2021/08/14 02:08:49;;;;;;;15.90;8.23;;;;;;;17.45;100.00;95596.13;5032487;28;20383;-63
2021/08/14 02:11:18;;;;;;;12.85;8.35;;;;;;;17.42;100.00;95596.72;5032120;28;20087;-63
2021/08/14 02:13:49;;;;;;;12.95;8.27;;;;;;;17.41;100.00;95589.69;5032689;28;20108;-63
2021/08/14 02:16:29;;;;;;;12.93;8.90;;;;;;;17.39;100.00;95588.09;5032582;28;20079;-63
2021/08/14 02:19:00;;;;;;;13.50;8.68;;;;;;;17.36;100.00;95582.44;5031092;28;20108;-63
2021/08/14 02:21:26;;;;;;;17.58;8.65;;;;;;;17.35;100.00;95580.84;5031923;28;20406;-63
2021/08/14 02:23:52;;;;;;;14.48;9.13;;;;;;;17.39;100.00;95579.97;5030895;28;20021;-63
2021/08/14 02:26:18;;;;;;;12.23;9.02;;;;;;;17.39;100.00;95569.13;5032220;28;20032;-62
2021/08/14 02:28:46;;;;;;;16.90;10.00;;;;;;;17.37;100.00;95562.41;5031189;28;20044;-62
2021/08/14 02:31:12;;;;;;;19.52;9.82;;;;;;;17.34;100.00;95557.56;5030575;28;20116;-62
2021/08/14 02:33:38;;;;;;;15.25;9.77;;;;;;;17.32;100.00;95551.66;5030815;28;20113;-62
2021/08/14 02:36:05;;;;;;;15.18;8.93;;;;;;;17.30;100.00;95554.66;5031701;28;20045;-63
2021/08/14 02:38:32;;;;;;;13.55;9.30;;;;;;;17.27;100.00;95549.84;5014684;28;20029;-63
2021/08/14 02:40:57;;;;;;;14.40;8.93;;;;;;;17.23;100.00;95545.31;5031414;28;20026;-63
2021/08/14 02:43:23;;;;;;;11.23;8.57;;;;;;;17.18;100.00;95543.50;5031062;28;20079;-63
2021/08/14 02:45:48;;;;;;;12.73;9.18;;;;;;;17.13;100.00;95540.84;5031752;28;20061;-63
2021/08/14 02:48:16;;;;;;;15.85;8.43;;;;;;;17.10;100.00;95541.44;5031876;28;20052;-63
2021/08/14 02:50:42;;;;;;;13.57;9.23;;;;;;;17.05;100.00;95536.13;5031346;28;20017;-63
2021/08/14 02:53:08;;;;;;;15.82;9.07;;;;;;;16.99;100.00;95538.09;5031843;28;20033;-63
2021/08/14 02:55:34;;;;;;;13.13;8.32;;;;;;;16.93;100.00;95528.47;5031657;28;20472;-63
2021/08/14 02:58:03;;;;;;;12.30;8.73;;;;;;;16.89;100.00;95529.31;5031748;28;20032;-63
2021/08/14 03:00:29;;;;;;;19.23;8.75;;;;;;;16.88;100.00;95531.22;5013566;28;20079;-62
2021/08/14 03:02:57;;;;;;;16.83;9.15;;;;;;;16.90;100.00;95537.13;5031147;28;20028;-63
2021/08/14 03:05:35;;;;;;;15.60;9.50;;;;;;;16.90;100.00;95526.31;5031608;28;20034;-63
2021/08/14 03:08:08;;;;;;;11.65;8.00;;;;;;;16.93;100.00;95514.94;5031734;28;20021;-63
2021/08/14 03:10:33;;;;;;;;;;;;;;;16.96;100.00;95506.22;5013842;28;20104;-63
2021/08/14 03:13:05;;;;;;;14.40;8.13;;;;;;;16.92;100.00;95498.97;5013775;28;20020;-63
2021/08/14 03:15:42;;;;;;;14.90;9.75;;;;;;;16.86;100.00;95502.88;5031389;28;20080;-62
2021/08/14 03:18:08;;;;;;;12.95;9.23;;;;;;;16.85;100.00;95501.25;5031457;28;20029;-63
2021/08/14 03:20:44;;;;;;;17.00;8.98;;;;;;;16.85;100.00;95493.94;5031009;28;20479;-63
2021/08/14 03:23:16;;;;;;;16.02;9.02;;;;;;;16.86;100.00;95487.44;5031638;28;20028;-62
2021/08/14 03:25:44;;;;;;;17.88;9.63;;;;;;;16.87;100.00;95477.41;5030205;28;20029;-62
2021/08/14 03:28:12;;;;;;;14.85;8.80;;;;;;;16.83;100.00;95460.97;5030249;28;20079;-63
2021/08/14 03:30:40;;;;;;;14.77;8.93;;;;;;;16.79;100.00;95458.03;5029691;28;20373;-63
2021/08/14 03:33:15;;;;;;;14.48;8.90;;;;;;;16.77;100.00;95445.91;5031424;28;20072;-62
2021/08/14 03:35:40;;;;;;;16.25;8.98;;;;;;;16.75;100.00;95445.41;5021294;28;20095;-64
2021/08/14 03:38:08;;;;;;;15.02;9.40;;;;;;;16.78;100.00;95436.69;5031286;28;20026;-62
2021/08/14 03:40:34;;;;;;;17.38;9.80;;;;;;;16.79;100.00;95420.16;5030739;28;20052;-63
2021/08/14 03:43:04;;;;;;;14.85;8.70;;;;;;;16.76;100.00;95415.34;5031183;28;20052;-62
2021/08/14 03:45:33;;;;;;;14.00;9.23;;;;;;;16.72;100.00;95414.34;5013556;28;20108;-63
2021/08/14 03:48:01;;;;;;;16.25;8.77;;;;;;;16.68;100.00;95407.09;5031270;28;20018;-63
2021/08/14 03:50:29;;;;;;;17.05;9.00;;;;;;;16.68;100.00;95404.41;5031028;28;20025;-61
2021/08/14 03:53:04;;;;;;;17.42;9.23;;;;;;;16.67;100.00;95402.75;5031007;28;20033;-63
2021/08/14 03:55:29;;;;;;;17.52;9.48;;;;;;;16.66;100.00;95404.66;5034153;28;20031;-63
2021/08/14 03:57:55;;;;;;;16.10;9.57;;;;;;;16.67;100.00;95397.34;5035019;28;20025;-61
2021/08/14 04:00:22;;;;;;;15.07;9.90;;;;;;;16.69;100.00;95392.47;5035018;28;20032;-61
2021/08/14 04:02:51;;;;;;;13.63;9.73;;;;;;;16.71;100.00;95387.56;5034553;28;20025;-59
2021/08/14 04:05:19;;;;;;;17.17;9.63;;;;;;;16.71;100.00;95384.88;5034758;28;20029;-61
2021/08/14 04:07:44;;;;;;;16.75;9.00;;;;;;;16.72;100.00;95386.50;5034901;28;20522;-61
2021/08/14 04:10:10;;;;;;;22.80;8.73;;;;;;;16.71;100.00;95376.75;5034686;28;20029;-61
2021/08/14 04:12:38;;;;;;;16.10;9.20;;;;;;;16.71;100.00;95369.44;5033311;28;20130;-59
2021/08/14 04:15:07;;;;;;;15.45;9.07;;;;;;;16.71;100.00;95369.44;5034694;28;20032;-61
2021/08/14 04:17:39;;;;;;;12.43;8.18;;;;;;;16.72;100.00;95359.44;5033455;28;20151;-61
2021/08/14 04:20:11;;;;;;;12.63;8.05;;;;;;;16.72;100.00;95362.16;5033305;28;20380;-61
2021/08/14 04:22:40;;;;;;;14.40;9.07;;;;;;;16.70;100.00;95359.72;5032998;28;20029;-59
2021/08/14 04:25:09;;;;;;;11.65;8.80;;;;;;;16.70;100.00;95359.72;5034468;28;20037;-58
2021/08/14 04:27:37;;;;;;;13.82;9.20;;;;;;;16.72;100.00;95349.44;5034569;28;20032;-61
2021/08/14 04:30:04;;;;;;;14.48;9.15;;;;;;;16.73;100.00;95352.94;5034444;28;20018;-59
2021/08/14 04:32:36;;;;;;;19.00;8.93;;;;;;;16.74;100.00;95344.53;5033819;28;20029;-59
2021/08/14 04:35:07;;;;;;;13.75;9.23;;;;;;;16.73;100.00;95340.22;5007549;28;20029;-60
2021/08/14 04:37:39;;;;;;;20.38;10.35;;;;;;;16.74;100.00;95341.00;5040013;28;20098;-62
2021/08/14 04:40:11;;;;;;;21.23;10.05;;;;;;;16.75;100.00;95332.59;5036974;28;20017;-62
2021/08/14 04:42:36;;;;;;;15.45;9.80;;;;;;;16.79;100.00;95335.50;5036824;28;20538;-62
2021/08/14 04:45:04;;;;;;;13.60;9.30;;;;;;;16.83;100.00;95333.81;5034606;28;20037;-62
2021/08/14 04:47:29;;;;;;;16.52;9.55;;;;;;;16.88;100.00;95336.44;5016977;28;20021;-62
2021/08/14 04:50:01;;;;;;;15.30;9.77;;;;;;;17.01;100.00;95329.41;5034875;28;20024;-62
2021/08/14 04:52:43;;;;;;;16.83;10.27;;;;;;;17.12;100.00;95319.22;5034879;28;20029;-63
2021/08/14 04:55:12;;;;;;;14.75;9.80;;;;;;;17.17;100.00;95313.72;5027560;28;20029;-63
2021/08/14 04:57:39;;;;;;;12.70;9.63;;;;;;;17.18;100.00;95310.69;5034544;28;20029;-63
2021/08/14 05:00:08;;;;;;;14.77;10.05;;;;;;;17.18;100.00;95309.91;5034543;28;20021;-63
2021/08/14 05:02:36;;;;;;;15.50;10.02;;;;;;;17.20;100.00;95305.78;5034724;28;20029;-63
2021/08/14 05:05:08;;;;;;;15.43;10.27;;;;;;;17.22;100.00;95306.28;5034285;28;20021;-63
2021/08/14 05:07:34;;;;;;;13.95;8.68;;;;;;;17.27;100.00;95308.09;5016312;28;20396;-62
2021/08/14 05:10:13;;;;;;;13.10;9.52;;;;;;;17.36;100.00;95311.69;5034173;28;20029;-63
2021/08/14 05:12:39;;;;;;;15.07;9.57;;;;;;;17.47;100.00;95301.44;5034088;28;20033;-63
2021/08/14 05:15:13;;;;;;;13.98;9.57;;;;;;;17.61;100.00;95304.94;5034280;28;20416;-62
2021/08/14 05:17:38;;;;;;;19.35;10.60;;;;;;;17.75;100.00;95296.81;5034278;28;20110;-63
2021/08/14 05:20:05;;;;;;;21.52;10.02;;;;;;;17.86;100.00;95290.06;5016537;28;20018;-62
2021/08/14 05:22:30;;;;;;;16.38;10.13;;;;;;;17.98;100.00;95295.75;5016274;28;20132;-63
2021/08/14 05:24:58;;;;;;;14.18;9.60;;;;;;;18.07;100.00;95283.06;5016574;28;20116;-62
2021/08/14 05:27:30;;;;;;;16.35;9.68;;;;;;;18.19;100.00;95279.81;5016272;28;20544;-62
2021/08/14 05:29:58;;;;;;;19.48;9.52;;;;;;;18.28;100.00;95279.88;5034129;28;20025;-62
2021/08/14 05:32:23;;;;;;;16.48;10.32;;;;;;;18.37;100.00;95275.31;5033997;28;20029;-62
2021/08/14 05:34:49;;;;;;;13.63;9.88;;;;;;;18.43;100.00;95287.63;5015743;28;20060;-62
2021/08/14 05:37:14;;;;;;;14.75;9.43;;;;;;;18.53;100.00;95293.59;5032723;28;20260;-62
2021/08/14 05:39:40;;;;;;;17.30;10.23;;;;;;;18.70;100.00;95287.53;5029252;28;20029;-62
2021/08/14 05:42:07;;;;;;;17.30;10.27;;;;;;;18.89;100.00;95291.94;5016153;28;20033;-62
2021/08/14 05:44:33;;;;;;;17.92;10.18;;;;;;;19.09;100.00;95288.63;5028285;28;20060;-63
2021/08/14 05:46:58;;;;;;;16.77;10.05;;;;;;;19.25;100.00;95297.97;5017683;28;20492;-62
2021/08/14 05:49:25;;;;;;;14.15;9.73;;;;;;;19.44;100.00;95294.22;5007335;28;20029;-62
2021/08/14 05:51:54;;;;;;;14.90;10.43;;;;;;;19.66;100.00;95291.41;5022506;28;20037;-62
2021/08/14 05:54:19;;;;;;;20.23;9.65;;;;;;;19.87;100.00;95286.97;5033389;28;20014;-63
2021/08/14 05:56:46;;;;;;;24.08;9.57;;;;;;;20.13;100.00;95284.25;5025928;28;20476;-62
2021/08/14 05:59:13;;;;;;;13.93;9.68;;;;;;;20.37;100.00;95269.34;5001704;28;20117;-63
2021/08/14 06:01:39;;;;;;;15.05;9.82;;;;;;;20.62;100.00;95270.44;5015979;28;20480;-62
2021/08/14 06:04:06;;;;;;;17.52;10.05;;;;;;;20.88;100.00;95268.47;5033070;28;20028;-62
2021/08/14 06:06:36;;;;;;;14.98;9.75;;;;;;;21.16;100.00;95251.69;5015921;28;20021;-62
2021/08/14 06:09:05;;;;;;;12.80;9.18;;;;;;;21.44;100.00;95238.44;5033437;28;20025;-63
2021/08/14 06:11:30;;;;;;;12.85;8.73;;;;;;;21.70;100.00;95209.84;5030930;28;20037;-63
2021/08/14 06:13:56;;;;;;;15.07;8.82;;;;;;;21.92;100.00;95186.09;5023942;28;20032;-62
2021/08/14 06:16:21;;;;;;;12.65;9.15;;;;;;;22.09;100.00;95163.38;5019226;28;20498;-62
2021/08/14 06:18:47;;;;;;;14.18;9.40;;;;;;;22.26;100.00;95128.53;5019353;28;20025;-63
2021/08/14 06:21:15;;;;;;;9.30;7.60;;;;;;;22.40;100.00;95111.06;5021740;28;20017;-63
2021/08/14 06:23:40;;;;;;;13.70;8.57;;;;;;;22.50;100.00;95094.22;5008496;28;20021;-62
2021/08/14 06:26:05;;;;;;;14.45;8.02;;;;;;;22.58;100.00;95066.03;4999057;28;20025;-63
2021/08/14 06:28:34;;;;;;;11.85;8.07;;;;;;;22.79;100.00;95055.78;5011178;28;20026;-63
2021/08/14 06:30:59;;;;;;;11.95;8.25;;;;;;;22.98;100.00;95047.00;5015180;28;20107;-62
2021/08/14 06:33:25;;;;;;;14.18;8.85;;;;;;;23.25;100.00;95047.41;5027770;28;20125;-62
2021/08/14 06:35:53;;;;;;;13.07;8.57;;;;;;;23.49;100.00;95041.06;5014579;28;20026;-63
2021/08/14 06:38:21;;;;;;;12.05;6.70;;;;;;;23.70;100.00;95060.81;5024361;28;20025;-63
2021/08/14 06:40:47;;;;;;;10.55;7.30;;;;;;;23.95;100.00;95073.22;5030021;28;20021;-63
2021/08/14 06:43:12;;;;;;;14.48;7.05;;;;;;;24.16;100.00;95094.91;5024264;28;20025;-63
2021/08/14 06:45:38;;;;;;;18.65;8.00;;;;;;;24.29;100.00;95112.81;5006781;28;20049;-63
2021/08/14 06:48:06;;;;;;;13.05;7.00;;;;;;;24.47;100.00;95146.19;5021933;28;20040;-63
2021/08/14 06:50:50;;;;;;;12.20;7.28;;;;;;;24.71;100.00;95172.63;5031482;28;20433;-63
2021/08/14 06:53:15;;;;;;;13.05;6.35;;;;;;;24.93;100.00;95212.31;5027942;28;20078;-62
2021/08/14 06:55:54;;;;;;;46.08;7.50;;;;;;;25.17;100.00;95238.75;5006170;28;20104;-63
2021/08/14 06:58:22;;;;;;;13.77;6.80;;;;;;;25.31;100.00;95268.50;5031434;28;20040;-63
2021/08/14 07:00:47;;;;;;;12.55;5.85;;;;;;;25.34;100.00;95317.13;5031797;28;20017;-63
2021/08/14 07:03:12;;;;;;;13.95;7.07;;;;;;;25.51;100.00;95324.19;5013485;28;20067;-63
2021/08/14 07:05:46;;;;;;;14.30;7.43;;;;;;;25.66;100.00;95345.34;5031699;28;20021;-63
2021/08/14 07:08:14;;;;;;;26.05;8.02;;;;;;;25.84;100.00;95363.09;5031531;28;20108;-63
2021/08/14 07:10:42;;;;;;;10.43;6.97;;;;;;;26.01;100.00;95395.63;5031549;28;20018;-62
2021/08/14 07:13:10;;;;;;;14.65;7.53;;;;;;;26.23;100.00;95418.09;5013432;28;20142;-63
2021/08/14 07:15:37;;;;;;;20.33;7.07;;;;;;;26.30;100.00;95432.00;5013787;28;20148;-63
2021/08/14 07:18:05;;;;;;;29.15;7.40;;;;;;;26.38;100.00;95442.03;5031445;28;20021;-63
2021/08/14 07:20:33;;;;;;;14.32;7.25;;;;;;;26.54;100.00;95453.78;5013708;28;20018;-63
2021/08/14 07:23:01;;;;;;;15.60;7.25;;;;;;;26.69;100.00;95476.88;5031042;28;20049;-63
2021/08/14 07:25:27;;;;;;;15.05;7.03;;;;;;;26.84;100.00;95475.25;5031279;28;20029;-63
2021/08/14 07:27:56;;;;;;;16.23;6.95;;;;;;;26.95;100.00;95508.47;5031261;28;20025;-63
2021/08/14 07:30:21;;;;;;;16.17;7.63;;;;;;;27.17;100.00;95529.00;5034231;28;20079;-62
2021/08/14 07:32:49;;;;;;;13.38;6.93;;;;;;;27.31;100.00;95548.53;5035028;28;20476;-62
2021/08/14 07:35:28;;;;;;;8.20;6.32;;;;;;;27.38;100.00;95537.69;5034362;28;20087;-62
2021/08/14 07:37:58;;;;;;;10.70;6.50;;;;;;;27.42;100.00;95552.31;5018900;28;20120;-62
2021/08/14 07:40:27;;;;;;;10.00;6.78;;;;;;;27.54;100.00;95565.94;5034301;28;20503;-63
2021/08/14 07:42:57;;;;;;;12.93;6.65;;;;;;;27.60;100.00;95567.25;5034923;28;20041;-62
2021/08/14 07:45:24;;;;;;;13.90;6.93;;;;;;;27.71;100.00;95570.25;5035219;28;20543;-63
2021/08/14 07:48:06;;;;;;;15.32;7.15;;;;;;;27.81;100.00;95579.88;5033957;28;20029;-63
2021/08/14 07:50:36;;;;;;;10.73;6.13;;;;;;;28.00;100.00;95610.13;5033699;28;20064;-63
2021/08/14 07:53:07;;;;;;;11.68;7.28;;;;;;;28.07;100.00;95595.69;5017193;28;20053;-63
2021/08/14 07:55:36;;;;;;;9.68;6.55;;;;;;;28.25;100.00;95594.09;5035109;28;20033;-63
2021/08/14 07:58:10;;;;;;;12.65;7.47;;;;;;;28.32;100.00;95577.69;5035201;28;20474;-63
2021/08/14 08:00:35;;;;;;;13.43;6.82;;;;;;;28.45;100.00;95579.13;5035265;28;20531;-63
2021/08/14 08:03:03;;;;;;;12.43;7.65;;;;;;;28.57;100.00;95594.69;5034323;28;20044;-63
2021/08/14 08:05:37;;;;;;;21.70;7.90;;;;;;;28.68;100.00;95609.44;5034914;28;20026;-63
2021/08/14 08:08:09;;;;;;;14.40;7.75;;;;;;;28.67;100.00;95599.56;5033592;28;20030;-63
2021/08/14 08:10:35;;;;;;;12.30;7.72;;;;;;;28.62;100.00;95630.19;5033484;28;20034;-63
2021/08/14 08:13:06;;;;;;;14.95;7.93;;;;;;;28.67;100.00;95646.44;5034320;28;20048;-62
2021/08/14 08:15:38;;;;;;;15.33;8.93;;;;;;;28.78;100.00;95628.13;5035177;28;20064;-63
2021/08/14 08:18:03;;;;;;;15.85;8.35;;;;;;;29.02;100.00;95626.16;5034728;28;20603;-63
2021/08/14 08:20:38;;;;;;;12.85;7.65;;;;;;;29.25;100.00;95639.91;5033452;28;20109;-63
2021/08/14 08:23:04;;;;;;;12.90;7.57;;;;;;;29.53;100.00;95645.09;5034298;28;20021;-63
2021/08/14 08:25:35;;;;;;;15.13;8.30;;;;;;;29.68;100.00;95722.19;5034613;28;20036;-63
2021/08/14 08:28:04;;;;;;;11.52;7.68;;;;;;;29.83;100.00;95714.09;5034383;28;20043;-63
2021/08/14 08:30:36;;;;;;;12.50;7.18;;;;;;;29.95;100.00;95758.06;5034444;28;20097;-63
2021/08/14 08:33:01;;;;;;;16.70;6.95;;;;;;;30.05;100.00;95734.53;5033997;28;20065;-63
2021/08/14 08:35:27;;;;;;;13.95;8.15;;;;;;;30.09;100.00;95774.09;5034243;28;20144;-63
2021/08/14 08:37:52;;;;;;;14.63;7.93;;;;;;;30.23;100.00;95758.50;5036765;28;20045;-62
2021/08/14 08:40:21;;;;;;;14.05;7.57;;;;;;;30.10;100.00;95770.97;5032725;28;20480;-62
2021/08/14 08:42:50;;;;;;;10.88;8.02;;;;;;;30.18;100.00;95760.81;5033848;28;20079;-63
2021/08/14 08:45:15;;;;;;;15.85;9.23;;;;;;;30.09;100.00;95761.06;5033025;28;20485;-63
2021/08/14 08:47:45;;;;;;;16.48;8.73;;;;;;;30.05;100.00;95748.34;5034329;28;20057;-63
2021/08/14 08:50:12;;;;;;;15.38;8.50;;;;;;;30.16;100.00;95729.97;5034012;28;20029;-63
2021/08/14 08:52:44;;;;;;;15.27;9.27;;;;;;;30.20;100.00;95719.78;5034153;28;20033;-63
2021/08/14 08:55:11;;;;;;;15.70;8.25;;;;;;;30.28;100.00;95749.06;5034379;28;20025;-63
2021/08/14 08:57:37;;;;;;;15.75;9.77;;;;;;;30.53;100.00;95758.47;5033891;28;20036;-63
2021/08/14 09:00:04;;;;;;;12.85;9.07;;;;;;;30.72;100.00;95756.72;5033846;28;20017;-63
2021/08/14 09:02:36;;;;;;;12.90;8.27;;;;;;;30.79;100.00;95759.56;5032254;28;20025;-63
2021/08/14 09:05:23;;;;;;;10.88;8.25;;;;;;;31.13;100.00;95763.88;5032643;28;20554;-63
2021/08/14 09:07:51;;;;;;;13.32;8.77;;;;;;;31.10;100.00;95766.63;5032320;28;20045;-62
2021/08/14 09:10:25;;;;;;;15.20;8.95;;;;;;;31.29;100.00;95737.97;5033654;28;20021;-63
2021/08/14 09:12:56;;;;;;;12.75;8.75;;;;;;;31.42;100.00;95753.09;5031856;28;20504;-63
2021/08/14 09:15:34;;;;;;;12.65;8.85;;;;;;;31.54;100.00;95783.25;5033701;28;20029;-63
2021/08/14 09:18:01;;;;;;;18.98;10.15;;;;;;;31.50;100.00;95793.50;5033393;28;20400;-63
2021/08/14 09:20:57;;;;;;;14.40;9.63;;;;;;;31.11;100.00;95765.44;5032281;28;20068;-63
2021/08/14 09:23:28;;;;;;;15.55;9.63;;;;;;;31.34;100.00;95796.53;5019665;28;20037;-63
2021/08/14 09:26:06;;;;;;;14.27;9.90;;;;;;;31.64;100.00;95801.94;5033323;28;20489;-63
2021/08/14 09:28:39;;;;;;;15.88;10.23;;;;;;;31.64;100.00;95810.22;5033434;28;20041;-63
2021/08/14 09:31:12;;;;;;;15.27;10.10;;;;;;;31.97;100.00;95792.69;5031894;28;20493;-63
2021/08/14 09:33:38;;;;;;;12.70;8.85;;;;;;;32.29;100.00;95817.06;5014687;28;20032;-63
2021/08/14 09:36:09;;;;;;;14.15;10.85;;;;;;;32.32;100.00;95848.78;5041188;28;20053;-63
2021/08/14 09:38:45;;;;;;;16.27;10.77;;;;;;;32.48;100.00;95822.34;5037022;28;20049;-63
2021/08/14 09:41:19;;;;;;;16.55;10.05;;;;;;;32.61;100.00;95853.28;5033295;28;20021;-63
2021/08/14 09:43:57;;;;;;;18.77;10.23;;;;;;;32.72;100.00;95872.78;5015036;28;20045;-63
2021/08/14 09:46:41;;;;;;;14.00;9.93;;;;;;;32.86;100.00;95903.38;5032915;28;20033;-63
2021/08/14 09:49:07;;;;;;;14.43;10.15;;;;;;;33.11;100.00;95937.59;5015263;28;20053;-63
2021/08/14 09:51:34;;;;;;;13.65;10.07;;;;;;;33.22;100.00;95943.22;5032625;28;20492;-63
2021/08/14 09:54:04;;;;;;;16.05;10.10;;;;;;;33.16;100.00;95942.78;5014805;28;20061;-63
2021/08/14 09:56:36;;;;;;;18.92;9.80;;;;;;;33.24;100.00;95943.59;5015001;28;20056;-63
2021/08/14 09:59:06;;;;;;;15.60;9.15;;;;;;;33.37;100.00;95960.72;5015119;28;20025;-63
2021/08/14 10:01:36;;;;;;;15.23;8.57;;;;;;;33.32;100.00;95955.50;5032644;28;20101;-63
2021/08/14 10:04:05;;;;;;;11.15;8.75;;;;;;;33.32;100.00;95931.31;5014748;28;20029;-63
2021/08/14 10:06:37;;;;;;;15.25;9.77;;;;;;;33.18;100.00;95961.81;5032534;28;20096;-63
2021/08/14 10:09:04;;;;;;;14.45;8.93;;;;;;;33.29;100.00;95951.53;5014805;28;20388;-63
2021/08/14 10:11:29;;;;;;;14.80;9.02;;;;;;;33.47;100.00;95951.66;5032406;28;20455;-63
2021/08/14 10:13:58;;;;;;;20.45;8.95;;;;;;;33.57;100.00;95948.09;5032208;28;20033;-63
2021/08/14 10:16:23;;;;;;;12.50;8.40;;;;;;;33.78;100.00;95947.34;5014487;28;20030;-63
2021/08/14 10:18:52;;;;;;;13.50;8.93;;;;;;;33.96;99.03;95953.75;5032461;28;20506;-63
2021/08/14 10:21:28;;;;;;;12.23;8.32;;;;;;;34.18;99.34;95957.34;5032351;28;20590;-63
2021/08/14 10:23:56;;;;;;;13.40;8.82;;;;;;;34.06;95.87;95960.50;5031875;28;20029;-63
2021/08/14 10:26:26;;;;;;;12.57;8.07;;;;;;;34.01;100.00;95933.13;5014537;28;20029;-63
2021/08/14 10:28:55;;;;;;;13.38;8.88;;;;;;;34.32;98.73;95950.22;5014268;28;20021;-63
2021/08/14 10:31:30;;;;;;;14.38;9.73;;;;;;;34.61;98.45;95943.44;5032180;28;20025;-63
2021/08/14 10:33:56;;;;;;;13.68;9.15;;;;;;;34.64;96.18;95950.22;5031681;28;20059;-64
2021/08/14 10:36:22;;;;;;;15.43;10.38;;;;;;;34.60;97.84;95952.97;5041681;28;20029;-63
2021/08/14 10:38:52;;;;;;;13.88;9.52;;;;;;;34.96;98.93;95939.03;5039574;28;20052;-63
2021/08/14 10:41:35;;;;;;;14.90;9.63;;;;;;;35.31;97.10;95938.88;5032447;28;20021;-63
2021/08/14 10:44:04;;;;;;;15.38;9.15;;;;;;;35.20;100.00;95915.06;5032760;28;20025;-63
2021/08/14 10:46:41;;;;;;;19.30;10.73;;;;;;;35.07;96.86;95935.00;5032601;28;20037;-64
2021/08/14 10:49:11;;;;;;;19.55;10.75;;;;;;;35.09;99.08;95929.03;5032766;28;20028;-64
2021/08/14 10:51:50;;;;;;;12.48;9.73;;;;;;;35.03;98.02;95927.84;5032303;28;20515;-63
2021/08/14 10:54:28;;;;;;;14.00;10.27;;;;;;;35.27;96.97;95931.72;5032705;28;20033;-64
2021/08/14 10:56:59;;;;;;;14.93;10.15;;;;;;;35.29;96.57;95930.16;5032481;28;20021;-64
2021/08/14 10:59:39;;;;;;;13.70;10.13;;;;;;;35.72;95.56;95938.31;5032616;28;20056;-64
2021/08/14 11:02:11;;;;;;;16.98;9.82;;;;;;;36.30;93.39;95942.28;5032332;28;20099;-64
2021/08/14 11:04:42;;;;;;;14.45;9.82;;;;;;;36.36;90.80;95937.09;5031584;28;20472;-64
2021/08/14 11:07:16;;;;;;;16.70;10.70;;;;;;;36.06;94.11;95927.34;5032351;28;20034;-64
2021/08/14 11:09:42;;;;;;;15.25;10.30;;;;;;;35.90;92.81;95922.28;5014349;28;20436;-64
2021/08/14 11:12:08;;;;;;;13.60;9.45;;;;;;;35.74;94.29;95916.41;5032294;28;20037;-64
2021/08/14 11:14:44;;;;;;;13.65;9.23;;;;;;;35.74;93.83;95921.97;5032187;28;20025;-64
2021/08/14 11:17:12;;;;;;;12.73;9.60;;;;;;;35.77;95.39;95904.41;5028819;28;20039;-63
2021/08/14 11:20:06;;;;;;;15.25;9.55;;;;;;;35.66;100.00;95884.19;5025185;28;20017;-64
2021/08/14 11:22:41;;;;;;;14.52;10.63;;;;;;;35.81;95.24;95898.81;5020467;28;20472;-63
2021/08/14 11:25:26;;;;;;;13.77;9.27;;;;;;;35.80;97.48;95888.88;5024137;28;20436;-62
2021/08/14 11:28:04;;;;;;;16.63;10.00;;;;;;;35.55;95.22;95900.19;5011587;28;20029;-63